createdAt,value
2022-08-22T00:00:30.035Z,99084.53
2022-08-22T00:03:06.551Z,99108.38
2022-08-22T00:03:09.594Z,99087.69
2022-08-22T00:03:11.356Z,99114.72
2022-08-22T00:03:18.447Z,99091.25
2022-08-22T00:06:02.367Z,99085.84
2022-08-22T00:08:40.711Z,99088.97
2022-08-22T00:11:16.331Z,99090.81
2022-08-22T00:14:01.680Z,99091.81
2022-08-22T00:16:36.302Z,99086.78
2022-08-22T00:19:13.474Z,99084.56
2022-08-22T00:21:50.320Z,99082.28
2022-08-22T00:24:27.794Z,99092.94
2022-08-22T00:27:00.548Z,99088.69
2022-08-22T00:29:34.769Z,99094.56
2022-08-22T00:32:10.289Z,99098.72
2022-08-22T00:34:45.521Z,99086.41
2022-08-22T00:37:24.210Z,99088.06
2022-08-22T00:39:56.645Z,99099.28
2022-08-22T00:42:45.410Z,99107.09
2022-08-22T00:45:54.087Z,99096.53
2022-08-22T00:48:37.338Z,99095.84
2022-08-22T00:51:46.388Z,99102.50
2022-08-22T00:54:29.054Z,99099.94
2022-08-22T00:57:05.697Z,99102.63
2022-08-22T00:59:46.806Z,99102.56
2022-08-22T01:02:28.643Z,99095.47
2022-08-22T01:05:11.447Z,99102.78
2022-08-22T01:08:15.792Z,99095.25
2022-08-22T01:11:06.581Z,99092.34
2022-08-22T01:13:57.698Z,99083.97
2022-08-22T01:16:45.956Z,99099.09
2022-08-22T01:19:45.782Z,99094.16
2022-08-22T01:22:43.532Z,99097.06
2022-08-22T01:26:02.504Z,99101.50
2022-08-22T01:29:12.961Z,99099.50
2022-08-22T01:32:17.174Z,99095.53
2022-08-22T01:35:15.971Z,99091.22
2022-08-22T01:38:25.664Z,99086.88
2022-08-22T01:41:25.571Z,99095.09
2022-08-22T01:44:05.018Z,99088.84
2022-08-22T01:46:44.108Z,99103.47
2022-08-22T01:49:19.261Z,99093.72
2022-08-22T01:51:56.666Z,99091.88
2022-08-22T01:54:37.505Z,99097.22
2022-08-22T01:57:09.257Z,99099.31
2022-08-22T01:59:42.597Z,99093.63
2022-08-22T02:02:48.042Z,99099.88
2022-08-22T02:05:27.794Z,99100.13
2022-08-22T02:08:03.826Z,99101.50
2022-08-22T02:10:49.468Z,99095.78
2022-08-22T02:13:31.719Z,99096.06
2022-08-22T02:16:09.606Z,99087.00
2022-08-22T02:18:57.704Z,99089.00
2022-08-22T02:21:40.745Z,99085.63
2022-08-22T02:24:22.829Z,99085.78
2022-08-22T02:27:04.471Z,99085.09
2022-08-22T02:29:40.255Z,99078.63
2022-08-22T02:32:18.460Z,99084.94
2022-08-22T02:34:56.773Z,99081.13
2022-08-22T02:37:36.266Z,99075.66
2022-08-22T02:40:13.852Z,99080.69
2022-08-22T02:42:46.943Z,99069.88
2022-08-22T02:45:25.721Z,99077.63
2022-08-22T02:48:02.537Z,99076.66
2022-08-22T02:50:38.929Z,99073.00
2022-08-22T02:53:13.752Z,99080.28
2022-08-22T02:55:51.701Z,99072.00
2022-08-22T02:58:27.582Z,99069.09
2022-08-22T03:01:22.267Z,99063.63
2022-08-22T03:03:51.928Z,99066.44
2022-08-22T03:06:40.257Z,99065.75
2022-08-22T03:09:24.883Z,99069.25
2022-08-22T03:12:12.751Z,99069.41
2022-08-22T03:14:48.506Z,99072.75
2022-08-22T03:17:24.065Z,99077.53
2022-08-22T03:19:57.727Z,99081.59
2022-08-22T03:22:35.021Z,99086.63
2022-08-22T03:25:09.688Z,99087.16
2022-08-22T03:27:46.163Z,99079.75
2022-08-22T03:30:21.414Z,99081.06
2022-08-22T03:32:54.780Z,99095.50
2022-08-22T03:35:52.858Z,99091.84
2022-08-22T03:38:26.064Z,99095.75
2022-08-22T03:41:19.422Z,99102.06
2022-08-22T03:44:09.809Z,99093.25
2022-08-22T03:47:04.053Z,99101.63
2022-08-22T03:50:14.925Z,99097.81
2022-08-22T03:53:15.543Z,99103.25
2022-08-22T03:56:28.233Z,99104.91
2022-08-22T03:59:19.593Z,99098.75
2022-08-22T04:02:27.540Z,99101.56
2022-08-22T04:05:34.404Z,99108.78
2022-08-22T04:08:42.652Z,99107.13
2022-08-22T04:11:40.116Z,99106.53
2022-08-22T04:14:40.710Z,99108.41
2022-08-22T04:17:32.298Z,99107.81
2022-08-22T04:20:41.759Z,99108.34
2022-08-22T04:23:51.855Z,99112.91
2022-08-22T04:26:28.800Z,99107.03
2022-08-22T04:29:09.417Z,99113.22
2022-08-22T04:31:47.457Z,99114.53
2022-08-22T04:34:23.947Z,99120.00
2022-08-22T04:36:57.091Z,99121.53
2022-08-22T04:39:35.602Z,99120.22
2022-08-22T04:42:31.644Z,99125.25
2022-08-22T04:45:06.304Z,99126.56
2022-08-22T04:47:39.255Z,99125.84
2022-08-22T04:50:16.535Z,99123.56
2022-08-22T04:53:05.912Z,99131.34
2022-08-22T04:55:41.260Z,99131.28
2022-08-22T04:58:23.346Z,99127.69
2022-08-22T05:00:58.499Z,99134.63
2022-08-22T05:03:30.150Z,99128.28
2022-08-22T05:06:02.667Z,99135.53
2022-08-22T05:08:34.333Z,99127.06
2022-08-22T05:11:06.877Z,99132.22
2022-08-22T05:13:39.255Z,99131.19
2022-08-22T05:16:15.946Z,99135.88
2022-08-22T05:18:50.060Z,99141.22
2022-08-22T05:21:27.133Z,99131.84
2022-08-22T05:24:00.540Z,99139.72
2022-08-22T05:26:31.576Z,99146.78
2022-08-22T05:29:08.075Z,99151.19
2022-08-22T05:31:39.651Z,99146.78
2022-08-22T05:34:14.673Z,99146.44
2022-08-22T05:36:49.989Z,99158.34
2022-08-22T05:39:20.768Z,99141.72
2022-08-22T05:41:51.410Z,99150.13
2022-08-22T05:44:22.083Z,99154.63
2022-08-22T05:46:55.362Z,99158.84
2022-08-22T05:49:31.200Z,99155.88
2022-08-22T05:52:10.597Z,99155.41
2022-08-22T05:54:50.609Z,99163.25
2022-08-22T05:57:29.008Z,99162.97
2022-08-22T06:00:04.073Z,99160.97
2022-08-22T06:02:48.486Z,99164.34
2022-08-22T06:05:23.857Z,99168.16
2022-08-22T06:07:59.872Z,99167.16
2022-08-22T06:10:38.173Z,99168.28
2022-08-22T06:13:11.932Z,99164.56
2022-08-22T06:15:48.183Z,99173.06
2022-08-22T06:18:22.140Z,99174.19
2022-08-22T06:20:53.996Z,99175.69
2022-08-22T06:23:27.977Z,99179.06
2022-08-22T06:26:00.934Z,99172.34
2022-08-22T06:28:36.119Z,99168.44
2022-08-22T06:31:06.395Z,99177.72
2022-08-22T06:33:45.449Z,99175.59
2022-08-22T06:36:32.445Z,99181.31
2022-08-22T06:39:15.956Z,99188.78
2022-08-22T06:41:52.211Z,99185.50
2022-08-22T06:44:25.215Z,99186.13
2022-08-22T06:46:56.584Z,99192.13
2022-08-22T06:49:26.912Z,99186.28
2022-08-22T06:52:01.430Z,99181.91
2022-08-22T06:54:36.657Z,99183.88
2022-08-22T06:57:06.722Z,99187.13
2022-08-22T06:59:39.497Z,99186.63
2022-08-22T07:02:23.254Z,99178.38
2022-08-22T07:04:53.001Z,99182.28
2022-08-22T07:07:21.669Z,99187.09
2022-08-22T07:09:55.646Z,99184.31
2022-08-22T07:12:30.043Z,99178.94
2022-08-22T07:15:12.135Z,99190.34
2022-08-22T07:20:24.461Z,99192.50
2022-08-22T07:22:56.265Z,99186.09
2022-08-22T07:25:26.623Z,99196.59
2022-08-22T07:28:07.694Z,99199.50
2022-08-22T07:30:50.893Z,99194.16
2022-08-22T07:33:33.323Z,99185.31
2022-08-22T07:36:04.183Z,99187.53
2022-08-22T07:38:43.015Z,99197.97
2022-08-22T07:41:16.716Z,99195.91
2022-08-22T07:43:49.696Z,99198.63
2022-08-22T07:46:28.135Z,99197.13
2022-08-22T07:49:09.045Z,99201.00
2022-08-22T07:51:44.068Z,99205.59
2022-08-22T07:54:15.795Z,99211.31
2022-08-22T07:56:58.410Z,99202.19
2022-08-22T07:59:28.480Z,99207.31
2022-08-22T08:01:59.868Z,99204.63
2022-08-22T08:04:34.132Z,99198.56
2022-08-22T08:07:08.800Z,99197.75
2022-08-22T08:09:42.596Z,99206.13
2022-08-22T08:12:14.144Z,99204.06
2022-08-22T08:14:45.270Z,99202.69
2022-08-22T08:17:18.666Z,99213.06
2022-08-22T08:19:48.190Z,99209.34
2022-08-22T08:22:19.597Z,99210.91
2022-08-22T08:24:48.930Z,99208.44
2022-08-22T08:27:39.930Z,99211.94
2022-08-22T08:30:15.475Z,99213.78
2022-08-22T08:32:48.210Z,99218.94
2022-08-22T08:35:23.483Z,99218.41
2022-08-22T08:38:00.903Z,99219.81
2022-08-22T08:40:59.938Z,99204.91
2022-08-22T08:43:41.929Z,99200.84
2022-08-22T08:46:41.209Z,99207.59
2022-08-22T08:50:01.333Z,99205.81
2022-08-22T08:52:51.090Z,99212.50
2022-08-22T08:55:34.809Z,99212.22
2022-08-22T08:58:22.023Z,99203.94
2022-08-22T09:01:03.347Z,99209.69
2022-08-22T09:04:06.862Z,99214.47
2022-08-22T09:07:09.394Z,99211.44
2022-08-22T09:09:52.734Z,99212.41
2022-08-22T09:12:56.028Z,99202.31
2022-08-22T09:16:04.907Z,99199.28
2022-08-22T09:18:52.270Z,99202.78
2022-08-22T09:21:53.926Z,99201.03
2022-08-22T09:25:07.711Z,99205.47
2022-08-22T09:27:39.660Z,99207.03
2022-08-22T09:30:14.399Z,99203.59
2022-08-22T09:32:54.765Z,99201.44
2022-08-22T09:35:30.908Z,99202.00
2022-08-22T09:38:24.536Z,99204.28
2022-08-22T09:41:03.343Z,99195.78
2022-08-22T09:43:41.864Z,99207.53
2022-08-22T09:46:31.398Z,99196.44
2022-08-22T09:49:12.934Z,99211.34
2022-08-22T09:51:46.300Z,99210.06
2022-08-22T09:54:35.111Z,99206.94
2022-08-22T09:57:26.839Z,99203.59
2022-08-22T10:00:23.979Z,99209.75
2022-08-22T10:03:09.661Z,99206.38
2022-08-22T10:05:47.064Z,99208.44
2022-08-22T10:08:32.228Z,99209.22
2022-08-22T10:11:26.160Z,99218.19
2022-08-22T10:14:03.697Z,99214.47
2022-08-22T10:16:49.708Z,99207.22
2022-08-22T10:19:26.650Z,99209.69
2022-08-22T10:22:30.057Z,99215.44
2022-08-22T10:25:34.658Z,99212.81
2022-08-22T10:28:18.134Z,99210.88
2022-08-22T10:31:02.710Z,99228.56
2022-08-22T10:33:36.526Z,99214.06
2022-08-22T10:36:11.699Z,99214.03
2022-08-22T10:38:46.802Z,99212.66
2022-08-22T10:41:27.131Z,99215.16
2022-08-22T10:44:04.170Z,99217.09
2022-08-22T10:46:39.052Z,99212.34
2022-08-22T10:49:19.818Z,99217.34
2022-08-22T10:51:56.517Z,99214.81
2022-08-22T10:54:41.189Z,99216.28
2022-08-22T10:57:22.747Z,99211.06
2022-08-22T11:00:00.970Z,99216.47
2022-08-22T11:02:53.111Z,99207.53
2022-08-22T11:05:27.517Z,99209.22
2022-08-22T11:08:06.476Z,99204.59
2022-08-22T11:10:52.221Z,99199.03
2022-08-22T11:13:30.166Z,99205.69
2022-08-22T11:16:09.094Z,99200.28
2022-08-22T11:19:02.000Z,99211.91
2022-08-22T11:21:47.824Z,99207.34
2022-08-22T11:24:56.348Z,99206.31
2022-08-22T11:27:39.919Z,99209.81
2022-08-22T11:30:18.255Z,99206.50
2022-08-22T11:33:13.796Z,99207.31
2022-08-22T11:35:51.960Z,99200.31
2022-08-22T11:38:33.764Z,99199.47
2022-08-22T11:41:09.736Z,99202.31
2022-08-22T11:43:56.810Z,99201.03
2022-08-22T11:46:31.232Z,99192.97
2022-08-22T11:49:32.711Z,99184.53
2022-08-22T11:52:13.102Z,99187.31
2022-08-22T11:55:01.731Z,99191.44
2022-08-22T11:57:37.453Z,99189.16
2022-08-22T12:00:21.784Z,99184.22
2022-08-22T12:03:15.763Z,99187.94
2022-08-22T12:05:47.426Z,99174.19
2022-08-22T12:08:28.368Z,99177.38
2022-08-22T12:11:03.560Z,99176.25
2022-08-22T12:13:49.800Z,99170.00
2022-08-22T12:16:25.811Z,99171.75
2022-08-22T12:19:06.018Z,99170.19
2022-08-22T12:22:00.573Z,99171.44
2022-08-22T12:24:38.313Z,99170.00
2022-08-22T12:27:28.001Z,99172.00
2022-08-22T12:30:13.759Z,99175.53
2022-08-22T12:33:20.774Z,99180.94
2022-08-22T12:36:03.655Z,99173.16
2022-08-22T12:38:57.644Z,99171.66
2022-08-22T12:41:46.694Z,99166.59
2022-08-22T12:44:36.776Z,99165.66
2022-08-22T12:47:19.904Z,99171.56
2022-08-22T12:50:05.126Z,99165.13
2022-08-22T12:52:51.967Z,99169.16
2022-08-22T12:55:35.542Z,99171.44
2022-08-22T12:58:13.775Z,99172.31
2022-08-22T13:00:45.346Z,99169.47
2022-08-22T13:03:25.109Z,99178.22
2022-08-22T13:05:59.128Z,99180.94
2022-08-22T13:08:32.428Z,99174.50
2022-08-22T13:11:02.801Z,99185.09
2022-08-22T13:13:38.854Z,99183.63
2022-08-22T13:16:11.922Z,99189.44
2022-08-22T13:18:53.539Z,99178.25
2022-08-22T13:21:31.828Z,99181.53
2022-08-22T13:24:10.565Z,99182.41
2022-08-22T13:26:49.117Z,99189.44
2022-08-22T13:29:26.507Z,99188.63
2022-08-22T13:32:00.672Z,99195.03
2022-08-22T13:34:40.590Z,99190.91
2022-08-22T13:37:16.812Z,99191.75
2022-08-22T13:39:48.951Z,99200.28
2022-08-22T13:42:30.203Z,99206.94
2022-08-22T13:45:02.988Z,99201.94
2022-08-22T13:47:39.711Z,99206.53
2022-08-22T13:50:15.057Z,99206.09
2022-08-22T13:52:52.319Z,99217.25
2022-08-22T13:55:30.353Z,99213.59
2022-08-22T13:58:04.634Z,99217.94
2022-08-22T14:01:07.746Z,99210.69
2022-08-22T14:03:45.627Z,99200.28
2022-08-22T14:06:38.299Z,99204.84
2022-08-22T14:09:13.709Z,99207.69
2022-08-22T14:11:47.941Z,99206.78
2022-08-22T14:14:26.560Z,99204.75
2022-08-22T14:16:59.574Z,99199.13
2022-08-22T14:19:53.084Z,99195.06
2022-08-22T14:22:32.276Z,99184.31
2022-08-22T14:25:07.519Z,99190.75
2022-08-22T14:27:39.720Z,99194.81
2022-08-22T14:30:15.823Z,99189.59
2022-08-22T14:32:48.539Z,99179.75
2022-08-22T14:35:25.462Z,99179.50
2022-08-22T14:38:22.162Z,99184.56
2022-08-22T14:41:03.221Z,99187.63
2022-08-22T14:43:50.072Z,99185.25
2022-08-22T14:46:26.692Z,99187.09
2022-08-22T14:49:26.955Z,99193.41
2022-08-22T14:52:03.169Z,99200.44
2022-08-22T14:54:33.815Z,99204.97
2022-08-22T14:57:10.173Z,99204.00
2022-08-22T14:59:46.399Z,99204.16
2022-08-22T15:02:26.499Z,99190.56
2022-08-22T15:04:56.211Z,99196.06
2022-08-22T15:07:27.422Z,99200.28
2022-08-22T15:10:03.020Z,99194.28
2022-08-22T15:12:35.156Z,99196.66
2022-08-22T15:15:07.431Z,99197.31
2022-08-22T15:17:44.846Z,99190.72
2022-08-22T15:20:28.138Z,99198.16
2022-08-22T15:23:00.310Z,99207.44
2022-08-22T15:25:32.141Z,99208.47
2022-08-22T15:28:06.799Z,99206.47
2022-08-22T15:30:45.055Z,99205.16
2022-08-22T15:33:17.478Z,99208.44
2022-08-22T15:35:48.956Z,99200.28
2022-08-22T15:38:32.948Z,99211.91
2022-08-22T15:41:37.819Z,99208.19
2022-08-22T15:44:18.265Z,99203.28
2022-08-22T15:47:05.431Z,99206.13
2022-08-22T15:49:50.773Z,99211.22
2022-08-22T15:52:27.236Z,99220.97
2022-08-22T15:55:19.105Z,99223.28
2022-08-22T15:58:09.165Z,99237.69
2022-08-22T16:00:45.054Z,99243.56
2022-08-22T16:03:15.194Z,99246.34
2022-08-22T16:05:54.552Z,99243.63
2022-08-22T16:08:32.908Z,99239.63
2022-08-22T16:11:21.525Z,99240.59
2022-08-22T16:14:22.845Z,99234.88
2022-08-22T16:17:01.311Z,99240.19
2022-08-22T16:19:31.291Z,99245.19
2022-08-22T16:22:11.219Z,99234.69
2022-08-22T16:25:07.100Z,99241.19
2022-08-22T16:27:52.287Z,99233.81
2022-08-22T16:30:34.820Z,99236.97
2022-08-22T16:33:04.623Z,99237.47
2022-08-22T16:36:25.037Z,99241.44
2022-08-22T16:38:56.707Z,99243.00
2022-08-22T16:41:35.585Z,99237.88
2022-08-22T16:44:25.020Z,99233.59
2022-08-22T16:46:55.618Z,99236.66
2022-08-22T16:49:30.618Z,99231.00
2022-08-22T16:52:35.605Z,99239.38
2022-08-22T16:55:06.948Z,99232.69
2022-08-22T16:58:04.928Z,99236.88
2022-08-22T17:00:45.591Z,99231.56
2022-08-22T17:03:24.538Z,99230.09
2022-08-22T17:06:00.484Z,99227.25
2022-08-22T17:08:47.564Z,99226.63
2022-08-22T17:11:29.951Z,99225.81
2022-08-22T17:14:11.557Z,99233.91
2022-08-22T17:16:56.450Z,99235.25
2022-08-22T17:19:40.160Z,99250.97
2022-08-22T17:22:19.308Z,99249.97
2022-08-22T17:25:01.288Z,99260.69
2022-08-22T17:27:35.185Z,99261.69
2022-08-22T17:30:09.422Z,99273.06
2022-08-22T17:32:57.201Z,99277.41
2022-08-22T17:35:45.711Z,99286.47
2022-08-22T17:38:30.593Z,99292.16
2022-08-22T17:41:08.187Z,99284.81
2022-08-22T17:43:50.263Z,99279.78
2022-08-22T17:46:43.184Z,99274.28
2022-08-22T17:49:22.482Z,99283.97
2022-08-22T17:51:59.546Z,99290.00
2022-08-22T17:54:35.697Z,99293.69
2022-08-22T17:57:08.677Z,99290.66
2022-08-22T17:59:47.052Z,99293.19
2022-08-22T18:02:20.444Z,99287.50
2022-08-22T18:04:59.317Z,99286.97
2022-08-22T18:07:42.248Z,99285.31
2022-08-22T18:10:21.347Z,99285.09
2022-08-22T18:13:00.502Z,99288.06
2022-08-22T18:15:39.821Z,99289.38
2022-08-22T18:18:14.598Z,99289.38
2022-08-22T18:20:50.587Z,99291.91
2022-08-22T18:23:35.425Z,99291.72
2022-08-22T18:26:16.244Z,99292.06
2022-08-22T18:28:52.641Z,99292.78
2022-08-22T18:31:38.633Z,99290.69
2022-08-22T18:34:24.791Z,99298.72
2022-08-22T18:36:59.670Z,99294.25
2022-08-22T18:39:39.569Z,99301.56
2022-08-22T18:42:19.648Z,99305.06
2022-08-22T18:44:48.362Z,99307.25
2022-08-22T18:47:20.973Z,99309.41
2022-08-22T18:49:54.513Z,99311.22
2022-08-22T18:52:41.212Z,99310.34
2022-08-22T18:55:23.672Z,99313.97
2022-08-22T18:58:25.430Z,99305.97
2022-08-22T19:01:09.243Z,99312.00
2022-08-22T19:04:10.017Z,99303.50
2022-08-22T19:06:49.398Z,99313.72
2022-08-22T19:09:47.823Z,99321.78
2022-08-22T19:12:40.445Z,99324.94
2022-08-22T19:15:28.875Z,99325.44
2022-08-22T19:18:16.397Z,99327.13
2022-08-22T19:21:14.023Z,99329.44
2022-08-22T19:23:49.604Z,99338.81
2022-08-22T19:26:31.239Z,99335.47
2022-08-22T19:29:07.705Z,99338.66
2022-08-22T19:31:50.740Z,99340.47
2022-08-22T19:34:38.730Z,99337.59
2022-08-22T19:37:33.039Z,99345.81
2022-08-22T19:40:06.076Z,99342.91
2022-08-22T19:42:40.427Z,99349.13
2022-08-22T19:45:29.507Z,99343.09
2022-08-22T19:48:01.823Z,99339.28
2022-08-22T19:50:36.151Z,99339.41
2022-08-22T19:53:39.631Z,99334.41
2022-08-22T19:56:21.559Z,99344.09
2022-08-22T19:59:02.393Z,99341.13
2022-08-22T20:01:56.635Z,99341.94
2022-08-22T20:04:50.126Z,99347.13
2022-08-22T20:07:33.287Z,99348.97
2022-08-22T20:10:21.625Z,99347.13
2022-08-22T20:13:02.423Z,99350.81
2022-08-22T20:15:33.529Z,99351.94
2022-08-22T20:18:11.907Z,99341.94
2022-08-22T20:21:00.497Z,99351.41
2022-08-22T20:23:32.438Z,99351.75
2022-08-22T20:26:01.628Z,99347.88
2022-08-22T20:28:41.457Z,99341.69
2022-08-22T20:31:19.712Z,99340.50
2022-08-22T20:33:54.000Z,99332.31
2022-08-22T20:36:28.142Z,99342.34
2022-08-22T20:39:04.348Z,99339.66
2022-08-22T20:41:40.573Z,99335.78
2022-08-22T20:44:16.106Z,99331.28
2022-08-22T20:46:55.273Z,99331.59
2022-08-22T20:49:29.657Z,99326.25
2022-08-22T20:52:03.250Z,99333.72
2022-08-22T20:54:33.972Z,99332.38
2022-08-22T20:57:11.328Z,99334.25
2022-08-22T20:59:42.320Z,99339.97
2022-08-22T21:02:15.860Z,99332.00
2022-08-22T21:04:53.686Z,99333.13
2022-08-22T21:07:24.498Z,99323.63
2022-08-22T21:10:22.496Z,99323.44
2022-08-22T21:13:09.464Z,99324.63
2022-08-22T21:15:39.846Z,99320.78
2022-08-22T21:18:07.976Z,99314.59
2022-08-22T21:20:39.977Z,99319.91
2022-08-22T21:23:11.515Z,99313.06
2022-08-22T21:25:56.527Z,99320.91
2022-08-22T21:28:32.242Z,99311.69
2022-08-22T21:31:01.979Z,99314.78
2022-08-22T21:33:30.338Z,99317.47
2022-08-22T21:36:01.105Z,99320.78
2022-08-22T21:38:29.820Z,99314.44
2022-08-22T21:41:04.727Z,99307.59
2022-08-22T21:43:36.959Z,99307.13
2022-08-22T21:46:05.891Z,99315.84
2022-08-22T21:48:37.871Z,99316.88
2022-08-22T21:51:31.946Z,99323.22
2022-08-22T21:54:40.261Z,99319.19
2022-08-22T21:57:36.656Z,99324.47
2022-08-22T22:00:13.810Z,99321.63
2022-08-22T22:02:43.853Z,99316.06
2022-08-22T22:05:14.282Z,99326.31
2022-08-22T22:07:46.843Z,99331.78
2022-08-22T22:10:17.962Z,99337.66
2022-08-22T22:12:47.865Z,99342.47
2022-08-22T22:15:19.831Z,99342.78
2022-08-22T22:17:47.904Z,99358.94
2022-08-22T22:20:16.589Z,99363.09
2022-08-22T22:22:47.165Z,99360.19
2022-08-22T22:25:40.211Z,99360.06
2022-08-22T22:28:07.441Z,99369.06
2022-08-22T22:30:35.715Z,99369.38
2022-08-22T22:33:03.875Z,99367.00
2022-08-22T22:35:32.394Z,99370.97
2022-08-22T22:38:02.299Z,99369.78
2022-08-22T22:40:31.162Z,99374.28
2022-08-22T22:42:59.418Z,99369.25
2022-08-22T22:45:27.491Z,99372.91
2022-08-22T22:47:55.624Z,99372.91
2022-08-22T22:50:23.790Z,99369.25
2022-08-22T22:52:53.025Z,99365.94
2022-08-22T22:55:25.545Z,99367.41
2022-08-22T22:57:58.729Z,99371.09
2022-08-22T23:00:29.113Z,99373.28
2022-08-22T23:02:59.813Z,99372.13
2022-08-22T23:05:28.110Z,99381.06
2022-08-22T23:07:56.301Z,99384.97
2022-08-22T23:10:25.834Z,99383.28
2022-08-22T23:12:53.965Z,99371.75
2022-08-22T23:15:22.362Z,99371.25
2022-08-22T23:17:50.447Z,99381.22
2022-08-22T23:20:19.034Z,99382.69
2022-08-22T23:22:47.766Z,99381.00
2022-08-22T23:25:16.202Z,99381.00
2022-08-22T23:27:48.799Z,99379.19
2022-08-22T23:30:21.150Z,99385.44
2022-08-22T23:32:49.411Z,99379.22
2022-08-22T23:35:17.580Z,99375.03
2022-08-22T23:37:45.694Z,99375.03
2022-08-22T23:40:13.881Z,99370.00
2022-08-22T23:42:42.204Z,99375.03
2022-08-22T23:45:12.470Z,99370.38
2022-08-22T23:47:40.609Z,99370.38
2022-08-22T23:50:09.035Z,99367.13
2022-08-22T23:52:37.097Z,99366.50
2022-08-22T23:55:05.673Z,99368.16
2022-08-22T23:57:33.755Z,99373.19
